createdAt,value
2022-09-06T00:00:43.391Z,18.07
2022-09-06T00:03:10.090Z,18.06
2022-09-06T00:10:30.923Z,18.04
2022-09-06T00:15:26.960Z,18.00
2022-09-06T00:20:19.669Z,18.00
2022-09-06T00:22:46.041Z,18.03
2022-09-06T00:25:12.432Z,18.05
2022-09-06T00:30:05.716Z,18.05
2022-09-06T00:32:32.508Z,18.06
2022-09-06T00:34:58.890Z,18.07
2022-09-06T00:37:25.337Z,18.06
2022-09-06T00:39:51.746Z,18.06
2022-09-06T00:42:18.176Z,18.06
2022-09-06T00:47:11.058Z,18.00
2022-09-06T00:52:12.796Z,17.54
2022-09-06T00:54:40.226Z,17.50
2022-09-06T00:57:06.878Z,17.31
2022-09-06T00:59:36.085Z,17.37
2022-09-06T01:04:29.646Z,17.40
2022-09-06T01:07:23.842Z,17.41
2022-09-06T01:10:14.873Z,17.42
2022-09-06T01:13:20.450Z,17.52
2022-09-06T01:21:17.544Z,17.46
2022-09-06T01:24:07.610Z,17.46
2022-09-06T01:26:56.968Z,17.47
2022-09-06T01:29:38.326Z,17.54
2022-09-06T01:32:23.470Z,17.72
2022-09-06T01:35:02.662Z,17.71
2022-09-06T01:37:29.247Z,17.65
2022-09-06T01:39:55.807Z,17.83
2022-09-06T01:42:26.476Z,17.78
2022-09-06T01:44:57.340Z,17.82
2022-09-06T01:47:37.490Z,17.81
2022-09-06T01:50:21.244Z,17.83
2022-09-06T01:53:02.622Z,17.75
2022-09-06T01:55:35.265Z,17.68
2022-09-06T01:58:27.950Z,17.72
2022-09-06T02:01:02.739Z,17.76
2022-09-06T02:03:43.290Z,17.71
2022-09-06T02:06:17.023Z,17.69
2022-09-06T02:08:50.859Z,17.61
2022-09-06T02:11:17.582Z,17.77
2022-09-06T02:13:57.862Z,17.72
2022-09-06T02:16:27.386Z,17.71
2022-09-06T02:18:59.613Z,17.64
2022-09-06T02:21:36.028Z,17.60
2022-09-06T02:24:08.642Z,17.69
2022-09-06T02:26:40.324Z,17.59
2022-09-06T02:31:45.050Z,17.66
2022-09-06T02:34:15.352Z,17.67
2022-09-06T02:36:41.834Z,17.57
2022-09-06T02:44:01.635Z,17.55
2022-09-06T02:46:28.084Z,17.55
2022-09-06T02:48:54.679Z,17.51
2022-09-06T02:51:21.079Z,17.37
2022-09-06T02:58:40.170Z,17.33
2022-09-06T03:01:07.022Z,17.40
2022-09-06T03:03:33.542Z,17.26
2022-09-06T03:05:59.964Z,17.18
2022-09-06T03:08:29.202Z,17.17
2022-09-06T03:10:56.777Z,17.14
2022-09-06T03:13:24.554Z,17.12
2022-09-06T03:20:44.390Z,17.07
2022-09-06T03:23:10.965Z,17.09
2022-09-06T03:25:37.358Z,17.11
2022-09-06T03:28:03.767Z,17.19
2022-09-06T03:30:30.196Z,17.22
2022-09-06T03:32:58.155Z,17.29
2022-09-06T03:35:27.174Z,17.29
2022-09-06T03:37:53.549Z,17.22
2022-09-06T03:40:19.979Z,17.14
2022-09-06T03:42:46.500Z,17.09
2022-09-06T03:45:12.970Z,17.19
2022-09-06T03:47:39.616Z,17.15
2022-09-06T03:50:07.023Z,16.97
2022-09-06T03:54:59.701Z,16.92
2022-09-06T03:57:26.100Z,16.95
2022-09-06T03:59:52.475Z,16.87
2022-09-06T04:02:18.963Z,16.91
2022-09-06T04:04:45.411Z,16.96
2022-09-06T04:07:11.868Z,17.03
2022-09-06T04:12:04.827Z,17.02
2022-09-06T04:19:24.032Z,17.02
2022-09-06T04:21:50.462Z,16.98
2022-09-06T04:24:16.850Z,16.97
2022-09-06T04:29:09.595Z,16.81
2022-09-06T04:36:29.768Z,16.81
2022-09-06T04:41:23.051Z,16.79
2022-09-06T04:43:49.413Z,16.80
2022-09-06T04:48:46.854Z,16.72
2022-09-06T04:51:13.375Z,16.71
2022-09-06T04:58:32.777Z,16.61
2022-09-06T05:00:59.158Z,16.55
2022-09-06T05:03:25.658Z,16.53
2022-09-06T05:08:18.891Z,16.57
2022-09-06T05:10:45.290Z,16.56
2022-09-06T05:13:11.717Z,16.56
2022-09-06T05:18:05.201Z,16.50
2022-09-06T05:20:31.680Z,16.36
2022-09-06T05:22:58.060Z,16.21
2022-09-06T05:25:24.472Z,16.12
2022-09-06T05:27:50.867Z,16.02
2022-09-06T05:30:18.252Z,15.97
2022-09-06T05:35:10.983Z,15.98
2022-09-06T05:37:37.351Z,15.99
2022-09-06T05:40:03.995Z,16.02
2022-09-06T05:42:30.441Z,16.04
2022-09-06T05:44:56.841Z,16.15
2022-09-06T05:57:10.106Z,16.41
2022-09-06T06:02:07.079Z,16.55
2022-09-06T06:04:33.929Z,16.46
2022-09-06T06:07:00.289Z,16.47
2022-09-06T06:09:26.644Z,16.48
2022-09-06T06:11:53.061Z,16.44
2022-09-06T06:14:19.518Z,16.48
2022-09-06T06:21:38.971Z,16.86
2022-09-06T06:24:06.272Z,16.92
2022-09-06T06:29:02.285Z,17.06
2022-09-06T06:31:30.099Z,17.15
2022-09-06T06:33:56.681Z,17.23
2022-09-06T06:36:25.316Z,17.41
2022-09-06T06:38:55.161Z,17.53
2022-09-06T06:41:24.421Z,17.72
2022-09-06T06:44:02.718Z,17.76
2022-09-06T06:46:32.051Z,17.89
2022-09-06T06:48:58.559Z,17.93
2022-09-06T06:53:52.960Z,18.07
2022-09-06T06:58:48.681Z,18.22
2022-09-06T07:01:16.565Z,18.29
2022-09-06T07:03:43.086Z,18.37
2022-09-06T07:08:41.879Z,18.58
2022-09-06T07:11:10.650Z,18.70
2022-09-06T07:13:37.709Z,18.85
2022-09-06T07:16:23.383Z,18.94
2022-09-06T07:18:54.474Z,19.07
2022-09-06T07:21:42.236Z,19.21
2022-09-06T07:26:38.558Z,19.47
2022-09-06T07:29:06.049Z,19.62
2022-09-06T07:34:20.390Z,19.96
2022-09-06T07:36:46.877Z,20.03
2022-09-06T07:39:14.024Z,20.10
2022-09-06T07:41:40.382Z,20.28
2022-09-06T07:51:25.884Z,20.65
2022-09-06T07:54:13.243Z,20.75
2022-09-06T07:56:44.305Z,20.92
2022-09-06T07:59:10.711Z,21.02
2022-09-06T08:01:38.946Z,21.11
2022-09-06T08:11:55.293Z,21.56
2022-09-06T08:16:47.952Z,21.86
2022-09-06T08:19:14.493Z,21.98
2022-09-06T08:24:12.478Z,22.39
2022-09-06T08:26:40.563Z,22.66
2022-09-06T08:29:08.610Z,22.69
2022-09-06T08:31:37.597Z,22.43
2022-09-06T08:34:04.329Z,22.46
2022-09-06T08:36:31.292Z,22.60
2022-09-06T08:46:46.894Z,22.89
2022-09-06T08:49:13.580Z,23.03
2022-09-06T08:51:50.918Z,23.05
2022-09-06T08:57:44.566Z,23.39
2022-09-06T09:00:13.422Z,23.56
2022-09-06T09:05:21.391Z,23.41
2022-09-06T09:08:04.097Z,23.59
2022-09-06T09:17:55.489Z,24.08
2022-09-06T09:22:49.316Z,23.99
2022-09-06T09:25:23.107Z,24.03
2022-09-06T09:27:57.602Z,24.00
2022-09-06T09:33:36.904Z,23.79
2022-09-06T09:38:42.222Z,24.00
2022-09-06T09:43:41.456Z,23.91
2022-09-06T09:48:37.982Z,23.72
2022-09-06T09:51:27.021Z,23.60
2022-09-06T09:53:59.457Z,23.55
2022-09-06T09:56:51.601Z,23.59
2022-09-06T10:09:39.611Z,24.06
2022-09-06T10:12:07.030Z,24.28
2022-09-06T10:14:44.620Z,24.39
2022-09-06T10:30:05.687Z,24.09
2022-09-06T10:37:52.045Z,24.16
2022-09-06T10:42:53.768Z,24.32
2022-09-06T10:50:41.393Z,24.73
2022-09-06T10:53:13.667Z,24.71
2022-09-06T10:58:19.657Z,24.89
2022-09-06T11:06:08.990Z,24.93
2022-09-06T11:08:53.287Z,24.97
2022-09-06T11:14:09.412Z,24.84
2022-09-06T11:22:05.865Z,25.52
2022-09-06T11:27:37.426Z,25.78
2022-09-06T11:35:10.924Z,26.11
2022-09-06T11:37:42.855Z,25.89
2022-09-06T11:40:35.741Z,26.01
2022-09-06T11:43:03.012Z,25.81
2022-09-06T11:48:33.888Z,25.75
2022-09-06T11:51:07.388Z,25.99
2022-09-06T11:53:48.747Z,26.08
2022-09-06T11:59:04.099Z,26.46
2022-09-06T12:01:30.456Z,26.39
2022-09-06T12:04:05.146Z,26.42
2022-09-06T12:11:33.999Z,26.41
2022-09-06T12:17:14.004Z,26.46
2022-09-06T12:19:56.014Z,26.65
2022-09-06T12:24:54.469Z,26.74
2022-09-06T12:27:26.791Z,26.74
2022-09-06T12:29:59.598Z,26.71
2022-09-06T12:40:22.969Z,26.88
2022-09-06T12:42:51.143Z,26.96
2022-09-06T12:45:25.141Z,26.83
2022-09-06T12:48:08.645Z,26.82
2022-09-06T12:58:04.536Z,26.97
2022-09-06T13:05:54.749Z,27.21
2022-09-06T13:08:32.663Z,27.23
2022-09-06T13:15:53.573Z,27.26
2022-09-06T13:21:15.647Z,26.91
2022-09-06T13:28:37.186Z,26.90
2022-09-06T13:33:54.487Z,26.43
2022-09-06T13:38:49.181Z,25.93
2022-09-06T13:41:24.609Z,26.28
2022-09-06T13:46:28.023Z,26.64
2022-09-06T13:53:48.867Z,26.63
2022-09-06T13:58:45.066Z,26.71
2022-09-06T14:01:11.923Z,26.80
2022-09-06T14:06:08.120Z,26.86
2022-09-06T14:18:42.404Z,27.30
2022-09-06T14:23:35.476Z,27.34
2022-09-06T14:28:32.172Z,27.37
2022-09-06T14:33:25.179Z,27.30
2022-09-06T14:35:52.335Z,27.39
2022-09-06T14:38:18.750Z,27.18
2022-09-06T14:43:11.618Z,26.85
2022-09-06T14:45:38.189Z,26.96
2022-09-06T14:48:05.482Z,27.15
2022-09-06T14:52:58.526Z,26.96
2022-09-06T14:55:25.094Z,26.97
2022-09-06T15:02:45.371Z,26.98
2022-09-06T15:07:38.142Z,27.10
2022-09-06T15:12:31.136Z,27.15
2022-09-06T15:14:57.531Z,27.23
2022-09-06T15:27:10.009Z,27.29
2022-09-06T15:32:02.829Z,27.20
2022-09-06T15:36:56.999Z,27.36
2022-09-06T15:41:50.634Z,27.65
2022-09-06T15:49:29.171Z,27.51
2022-09-06T15:52:00.808Z,27.46
2022-09-06T15:54:46.727Z,27.42
2022-09-06T15:59:41.255Z,27.48
2022-09-06T16:02:08.516Z,27.38
2022-09-06T16:04:35.102Z,27.38
2022-09-06T16:09:28.232Z,27.38
2022-09-06T16:11:54.652Z,27.40
2022-09-06T16:14:21.483Z,27.41
2022-09-06T16:16:48.315Z,27.51
2022-09-06T16:19:14.740Z,27.52
2022-09-06T16:31:39.165Z,27.45
2022-09-06T16:34:06.534Z,27.46
2022-09-06T16:38:59.270Z,27.46
2022-09-06T16:41:28.943Z,27.36
2022-09-06T16:43:55.571Z,27.27
2022-09-06T16:46:24.748Z,27.21
2022-09-06T16:48:52.801Z,27.20
2022-09-06T16:51:21.871Z,27.18
2022-09-06T16:58:44.562Z,27.08
2022-09-06T17:06:04.683Z,26.89
2022-09-06T17:08:32.771Z,26.80
2022-09-06T17:11:09.366Z,26.76
2022-09-06T17:13:36.554Z,26.66
2022-09-06T17:16:22.643Z,26.53
2022-09-06T17:21:15.717Z,26.34
2022-09-06T17:23:42.182Z,26.27
2022-09-06T17:28:36.893Z,26.14
2022-09-06T17:33:31.821Z,25.87
2022-09-06T17:38:32.518Z,25.56
2022-09-06T17:40:59.821Z,25.45
2022-09-06T17:45:53.210Z,25.29
2022-09-06T17:48:19.721Z,25.19
2022-09-06T17:50:46.189Z,25.05
2022-09-06T17:53:12.550Z,24.90
2022-09-06T17:55:42.428Z,24.77
2022-09-06T18:00:40.117Z,24.66
2022-09-06T18:03:08.300Z,24.62
2022-09-06T18:05:39.634Z,24.54
2022-09-06T18:08:07.758Z,24.33
2022-09-06T18:10:38.189Z,24.15
2022-09-06T18:13:06.039Z,24.00
2022-09-06T18:15:37.866Z,23.88
2022-09-06T18:18:04.330Z,23.81
2022-09-06T18:20:30.709Z,23.81
2022-09-06T18:22:57.203Z,23.78
2022-09-06T18:25:23.635Z,23.82
2022-09-06T18:27:50.001Z,23.84
2022-09-06T18:35:09.926Z,23.86
2022-09-06T18:37:36.588Z,23.84
2022-09-06T18:40:05.167Z,23.83
2022-09-06T18:42:31.917Z,23.84
2022-09-06T18:44:58.355Z,23.78
2022-09-06T18:49:51.100Z,23.44
2022-09-06T18:52:19.604Z,23.25
2022-09-06T18:54:46.080Z,23.16
2022-09-06T18:57:16.368Z,23.01
2022-09-06T18:59:42.937Z,22.88
2022-09-06T19:02:09.370Z,22.75
2022-09-06T19:09:29.070Z,22.37
2022-09-06T19:11:55.502Z,22.25
2022-09-06T19:14:21.960Z,22.19
2022-09-06T19:19:16.950Z,22.08
2022-09-06T19:21:43.329Z,22.06
2022-09-06T19:24:11.528Z,22.02
2022-09-06T19:26:41.607Z,21.90
2022-09-06T19:29:12.526Z,21.76
2022-09-06T19:31:39.485Z,21.60
2022-09-06T19:34:06.318Z,21.53
2022-09-06T19:36:33.456Z,21.48
2022-09-06T19:39:06.179Z,21.45
2022-09-06T19:41:38.137Z,21.42
2022-09-06T19:44:07.667Z,21.35
2022-09-06T19:46:35.065Z,21.23
2022-09-06T19:54:00.229Z,21.00
2022-09-06T19:58:57.297Z,21.12
2022-09-06T20:01:25.738Z,21.15
2022-09-06T20:03:52.511Z,21.14
2022-09-06T20:06:18.990Z,21.17
2022-09-06T20:08:50.434Z,21.23
2022-09-06T20:11:17.394Z,21.30
2022-09-06T20:13:43.828Z,21.31
2022-09-06T20:16:11.530Z,21.38
2022-09-06T20:18:38.095Z,21.43
2022-09-06T20:21:05.622Z,21.40
2022-09-06T20:23:34.239Z,21.35
2022-09-06T20:31:00.642Z,21.02
2022-09-06T20:33:27.110Z,20.91
2022-09-06T20:35:55.682Z,20.78
2022-09-06T20:38:22.832Z,20.61
2022-09-06T20:40:57.766Z,20.40
2022-09-06T20:43:24.712Z,20.31
2022-09-06T20:45:51.101Z,20.34
2022-09-06T20:48:17.447Z,20.26
2022-09-06T20:50:43.858Z,20.16
2022-09-06T20:53:10.354Z,20.23
2022-09-06T20:55:36.882Z,20.29
2022-09-06T20:58:03.233Z,20.37
2022-09-06T21:00:29.598Z,20.45
2022-09-06T21:02:55.949Z,20.48
2022-09-06T21:05:22.517Z,20.45
2022-09-06T21:12:41.484Z,20.49
2022-09-06T21:15:08.100Z,20.56
2022-09-06T21:17:34.500Z,20.39
2022-09-06T21:20:00.887Z,20.37
2022-09-06T21:22:28.408Z,20.25
2022-09-06T21:24:54.821Z,20.26
2022-09-06T21:27:21.189Z,20.26
2022-09-06T21:29:47.720Z,20.29
2022-09-06T21:32:14.068Z,20.27
2022-09-06T21:34:40.413Z,20.29
2022-09-06T21:37:06.912Z,20.33
2022-09-06T21:41:59.694Z,20.33
2022-09-06T21:46:52.646Z,20.28
2022-09-06T21:49:19.073Z,20.29
2022-09-06T21:51:45.446Z,20.20
2022-09-06T21:54:11.879Z,20.04
2022-09-06T21:56:39.397Z,19.97
2022-09-06T21:59:06.718Z,19.97
2022-09-06T22:01:35.515Z,19.89
2022-09-06T22:04:02.235Z,19.90
2022-09-06T22:06:31.001Z,19.95
2022-09-06T22:08:59.977Z,19.95
2022-09-06T22:11:31.946Z,20.01
2022-09-06T22:14:03.169Z,20.05
2022-09-06T22:18:56.501Z,20.42
2022-09-06T22:21:23.400Z,20.57
2022-09-06T22:26:25.600Z,20.86
2022-09-06T22:31:23.360Z,20.87
2022-09-06T22:33:50.646Z,20.88
2022-09-06T22:36:17.214Z,20.81
2022-09-06T22:38:43.661Z,20.81
2022-09-06T22:41:10.553Z,20.90
2022-09-06T22:43:37.181Z,20.86
2022-09-06T22:48:33.092Z,20.97
2022-09-06T22:51:00.573Z,20.92
2022-09-06T22:55:55.295Z,20.89
2022-09-06T23:00:48.797Z,20.88
2022-09-06T23:03:15.216Z,20.89
2022-09-06T23:05:41.615Z,20.86
2022-09-06T23:08:08.218Z,20.84
2022-09-06T23:10:42.582Z,20.78
2022-09-06T23:13:10.396Z,20.79
2022-09-06T23:15:38.614Z,20.78
2022-09-06T23:18:04.987Z,20.78
2022-09-06T23:20:31.488Z,20.77
2022-09-06T23:25:24.341Z,20.57
2022-09-06T23:27:51.217Z,20.51
2022-09-06T23:30:17.670Z,20.43
2022-09-06T23:32:44.030Z,20.41
2022-09-06T23:35:10.381Z,20.35
2022-09-06T23:37:36.796Z,20.31
2022-09-06T23:40:08.327Z,20.18
2022-09-06T23:42:35.400Z,20.18
2022-09-06T23:45:01.763Z,20.13
2022-09-06T23:49:54.432Z,20.71
2022-09-06T23:52:20.780Z,20.59
2022-09-06T23:57:13.409Z,19.96
2022-09-06T23:59:39.753Z,19.73
